sensor_id;sensor_type;location;lat;lon;timestamp;P1;durP1;ratioP1;P2;durP2;ratioP2
54517;SDS011;40423;53.176;6.002;2023-03-19T00:02:03;7.88;;;5.50;;
54517;SDS011;40423;53.176;6.002;2023-03-19T00:04:29;7.65;;;4.47;;
54517;SDS011;40423;53.176;6.002;2023-03-19T00:06:55;8.38;;;5.43;;
54517;SDS011;40423;53.176;6.002;2023-03-19T00:09:21;7.47;;;5.20;;
54517;SDS011;40423;53.176;6.002;2023-03-19T00:11:47;6.55;;;5.13;;
54517;SDS011;40423;53.176;6.002;2023-03-19T00:14:13;5.57;;;4.25;;
54517;SDS011;40423;53.176;6.002;2023-03-19T00:16:40;6.80;;;4.80;;
54517;SDS011;40423;53.176;6.002;2023-03-19T00:19:06;7.07;;;4.95;;
54517;SDS011;40423;53.176;6.002;2023-03-19T00:21:32;5.28;;;4.32;;
54517;SDS011;40423;53.176;6.002;2023-03-19T00:23:58;6.25;;;4.80;;
54517;SDS011;40423;53.176;6.002;2023-03-19T00:26:27;9.13;;;5.30;;
54517;SDS011;40423;53.176;6.002;2023-03-19T00:28:53;7.82;;;5.57;;
54517;SDS011;40423;53.176;6.002;2023-03-19T00:31:20;9.02;;;5.07;;
54517;SDS011;40423;53.176;6.002;2023-03-19T00:33:45;8.02;;;5.38;;
54517;SDS011;40423;53.176;6.002;2023-03-19T00:36:11;8.13;;;4.95;;
54517;SDS011;40423;53.176;6.002;2023-03-19T00:38:37;8.27;;;5.13;;
54517;SDS011;40423;53.176;6.002;2023-03-19T00:41:04;7.88;;;5.90;;
54517;SDS011;40423;53.176;6.002;2023-03-19T00:43:31;6.78;;;5.78;;
54517;SDS011;40423;53.176;6.002;2023-03-19T00:45:57;5.80;;;5.18;;
54517;SDS011;40423;53.176;6.002;2023-03-19T00:48:24;7.75;;;5.80;;
54517;SDS011;40423;53.176;6.002;2023-03-19T00:50:50;9.25;;;5.50;;
54517;SDS011;40423;53.176;6.002;2023-03-19T00:53:16;7.72;;;6.07;;
54517;SDS011;40423;53.176;6.002;2023-03-19T00:55:45;6.43;;;5.75;;
54517;SDS011;40423;53.176;6.002;2023-03-19T00:58:10;6.55;;;5.60;;
54517;SDS011;40423;53.176;6.002;2023-03-19T01:00:37;13.73;;;6.18;;
54517;SDS011;40423;53.176;6.002;2023-03-19T01:03:06;8.15;;;5.55;;
54517;SDS011;40423;53.176;6.002;2023-03-19T01:05:35;5.35;;;4.65;;
54517;SDS011;40423;53.176;6.002;2023-03-19T01:08:03;10.05;;;5.40;;
54517;SDS011;40423;53.176;6.002;2023-03-19T01:10:31;10.60;;;6.20;;
54517;SDS011;40423;53.176;6.002;2023-03-19T01:12:58;5.90;;;4.70;;
54517;SDS011;40423;53.176;6.002;2023-03-19T01:15:27;7.68;;;4.75;;
54517;SDS011;40423;53.176;6.002;2023-03-19T01:17:53;6.97;;;4.90;;
54517;SDS011;40423;53.176;6.002;2023-03-19T01:20:19;7.28;;;4.78;;
54517;SDS011;40423;53.176;6.002;2023-03-19T01:22:48;5.55;;;4.53;;
54517;SDS011;40423;53.176;6.002;2023-03-19T01:25:14;6.35;;;4.47;;
54517;SDS011;40423;53.176;6.002;2023-03-19T01:27:40;7.18;;;5.07;;
54517;SDS011;40423;53.176;6.002;2023-03-19T01:30:06;4.88;;;3.70;;
54517;SDS011;40423;53.176;6.002;2023-03-19T01:32:33;5.65;;;4.75;;
54517;SDS011;40423;53.176;6.002;2023-03-19T01:34:59;5.95;;;4.75;;
54517;SDS011;40423;53.176;6.002;2023-03-19T01:37:25;5.90;;;4.57;;
54517;SDS011;40423;53.176;6.002;2023-03-19T01:39:53;5.97;;;4.45;;
54517;SDS011;40423;53.176;6.002;2023-03-19T01:42:22;6.43;;;5.00;;
54517;SDS011;40423;53.176;6.002;2023-03-19T01:44:48;6.25;;;4.63;;
54517;SDS011;40423;53.176;6.002;2023-03-19T01:49:42;7.55;;;5.53;;
54517;SDS011;40423;53.176;6.002;2023-03-19T01:52:11;6.47;;;4.53;;
54517;SDS011;40423;53.176;6.002;2023-03-19T01:54:39;5.57;;;4.93;;
54517;SDS011;40423;53.176;6.002;2023-03-19T01:57:06;6.78;;;4.60;;
54517;SDS011;40423;53.176;6.002;2023-03-19T01:59:41;6.15;;;4.50;;
54517;SDS011;40423;53.176;6.002;2023-03-19T02:02:21;6.55;;;4.80;;
54517;SDS011;40423;53.176;6.002;2023-03-19T02:05:00;6.30;;;4.72;;
54517;SDS011;40423;53.176;6.002;2023-03-19T02:07:29;6.25;;;5.43;;
54517;SDS011;40423;53.176;6.002;2023-03-19T02:12:25;9.15;;;5.28;;
54517;SDS011;40423;53.176;6.002;2023-03-19T02:14:51;6.90;;;5.13;;
54517;SDS011;40423;53.176;6.002;2023-03-19T02:17:18;9.18;;;5.25;;
54517;SDS011;40423;53.176;6.002;2023-03-19T02:19:53;7.50;;;5.03;;
54517;SDS011;40423;53.176;6.002;2023-03-19T02:22:33;6.85;;;5.25;;
54517;SDS011;40423;53.176;6.002;2023-03-19T02:25:03;7.50;;;5.78;;
54517;SDS011;40423;53.176;6.002;2023-03-19T02:27:39;7.47;;;5.50;;
54517;SDS011;40423;53.176;6.002;2023-03-19T02:32:59;6.97;;;6.05;;
54517;SDS011;40423;53.176;6.002;2023-03-19T02:35:25;9.25;;;6.85;;
54517;SDS011;40423;53.176;6.002;2023-03-19T02:37:53;8.57;;;7.07;;
54517;SDS011;40423;53.176;6.002;2023-03-19T02:40:21;10.93;;;7.78;;
54517;SDS011;40423;53.176;6.002;2023-03-19T02:42:55;11.63;;;7.90;;
54517;SDS011;40423;53.176;6.002;2023-03-19T02:45:21;10.27;;;7.65;;
54517;SDS011;40423;53.176;6.002;2023-03-19T02:47:51;12.20;;;8.77;;
54517;SDS011;40423;53.176;6.002;2023-03-19T02:50:17;18.65;;;11.38;;
54517;SDS011;40423;53.176;6.002;2023-03-19T02:52:43;15.43;;;11.98;;
54517;SDS011;40423;53.176;6.002;2023-03-19T02:55:09;15.52;;;11.82;;
54517;SDS011;40423;53.176;6.002;2023-03-19T02:57:34;16.80;;;12.27;;
54517;SDS011;40423;53.176;6.002;2023-03-19T03:00:00;15.07;;;11.52;;
54517;SDS011;40423;53.176;6.002;2023-03-19T03:02:26;20.10;;;13.40;;
54517;SDS011;40423;53.176;6.002;2023-03-19T03:04:52;15.73;;;11.38;;
54517;SDS011;40423;53.176;6.002;2023-03-19T03:07:20;15.98;;;10.70;;
54517;SDS011;40423;53.176;6.002;2023-03-19T03:09:49;14.20;;;9.40;;
54517;SDS011;40423;53.176;6.002;2023-03-19T03:12:15;10.63;;;7.90;;
54517;SDS011;40423;53.176;6.002;2023-03-19T03:14:41;9.35;;;6.80;;
54517;SDS011;40423;53.176;6.002;2023-03-19T03:17:09;9.55;;;6.72;;
54517;SDS011;40423;53.176;6.002;2023-03-19T03:19:38;8.85;;;5.93;;
54517;SDS011;40423;53.176;6.002;2023-03-19T03:22:04;7.15;;;6.07;;
54517;SDS011;40423;53.176;6.002;2023-03-19T03:24:30;8.00;;;5.80;;
54517;SDS011;40423;53.176;6.002;2023-03-19T03:26:55;7.70;;;5.50;;
54517;SDS011;40423;53.176;6.002;2023-03-19T03:29:21;16.48;;;7.05;;
54517;SDS011;40423;53.176;6.002;2023-03-19T03:31:47;7.80;;;5.93;;
54517;SDS011;40423;53.176;6.002;2023-03-19T03:34:13;6.95;;;5.88;;
54517;SDS011;40423;53.176;6.002;2023-03-19T03:36:38;9.80;;;6.43;;
54517;SDS011;40423;53.176;6.002;2023-03-19T03:39:04;8.98;;;6.25;;
54517;SDS011;40423;53.176;6.002;2023-03-19T03:41:30;7.72;;;6.43;;
54517;SDS011;40423;53.176;6.002;2023-03-19T03:43:59;9.13;;;7.00;;
54517;SDS011;40423;53.176;6.002;2023-03-19T03:46:25;8.48;;;6.65;;
54517;SDS011;40423;53.176;6.002;2023-03-19T03:48:54;9.20;;;6.68;;
54517;SDS011;40423;53.176;6.002;2023-03-19T03:51:22;9.00;;;6.65;;
54517;SDS011;40423;53.176;6.002;2023-03-19T03:53:48;15.18;;;6.82;;
54517;SDS011;40423;53.176;6.002;2023-03-19T03:56:13;10.57;;;7.10;;
54517;SDS011;40423;53.176;6.002;2023-03-19T03:58:39;9.77;;;7.55;;
54517;SDS011;40423;53.176;6.002;2023-03-19T04:01:05;8.02;;;6.57;;
54517;SDS011;40423;53.176;6.002;2023-03-19T04:03:32;9.93;;;6.65;;
54517;SDS011;40423;53.176;6.002;2023-03-19T04:05:58;7.32;;;6.15;;
54517;SDS011;40423;53.176;6.002;2023-03-19T04:08:24;8.38;;;6.40;;
54517;SDS011;40423;53.176;6.002;2023-03-19T04:10:52;10.63;;;6.90;;
54517;SDS011;40423;53.176;6.002;2023-03-19T04:13:21;9.00;;;6.60;;
54517;SDS011;40423;53.176;6.002;2023-03-19T04:15:47;10.10;;;7.45;;
54517;SDS011;40423;53.176;6.002;2023-03-19T04:18:13;8.88;;;6.25;;
54517;SDS011;40423;53.176;6.002;2023-03-19T04:20:38;7.03;;;5.93;;
54517;SDS011;40423;53.176;6.002;2023-03-19T04:23:05;8.68;;;6.30;;
54517;SDS011;40423;53.176;6.002;2023-03-19T04:25:31;8.68;;;6.57;;
54517;SDS011;40423;53.176;6.002;2023-03-19T04:27:57;10.23;;;6.05;;
54517;SDS011;40423;53.176;6.002;2023-03-19T04:30:22;9.15;;;6.90;;
54517;SDS011;40423;53.176;6.002;2023-03-19T04:32:48;11.18;;;7.78;;
54517;SDS011;40423;53.176;6.002;2023-03-19T04:35:14;9.02;;;7.18;;
54517;SDS011;40423;53.176;6.002;2023-03-19T04:37:42;11.90;;;8.73;;
54517;SDS011;40423;53.176;6.002;2023-03-19T04:40:12;13.90;;;8.80;;
54517;SDS011;40423;53.176;6.002;2023-03-19T04:42:39;13.75;;;9.93;;
54517;SDS011;40423;53.176;6.002;2023-03-19T04:45:05;13.73;;;10.50;;
54517;SDS011;40423;53.176;6.002;2023-03-19T04:47:31;16.20;;;11.25;;
54517;SDS011;40423;53.176;6.002;2023-03-19T04:49:57;16.15;;;11.07;;
54517;SDS011;40423;53.176;6.002;2023-03-19T04:52:23;15.45;;;11.95;;
54517;SDS011;40423;53.176;6.002;2023-03-19T04:54:48;17.38;;;13.02;;
54517;SDS011;40423;53.176;6.002;2023-03-19T04:57:14;19.40;;;13.20;;
54517;SDS011;40423;53.176;6.002;2023-03-19T04:59:40;19.38;;;15.05;;
54517;SDS011;40423;53.176;6.002;2023-03-19T05:02:09;22.40;;;16.33;;
54517;SDS011;40423;53.176;6.002;2023-03-19T05:04:35;19.95;;;15.40;;
54517;SDS011;40423;53.176;6.002;2023-03-19T05:07:01;19.52;;;14.43;;
54517;SDS011;40423;53.176;6.002;2023-03-19T05:09:29;22.02;;;16.17;;
54517;SDS011;40423;53.176;6.002;2023-03-19T05:11:55;20.50;;;15.90;;
54517;SDS011;40423;53.176;6.002;2023-03-19T05:14:21;21.50;;;14.93;;
54517;SDS011;40423;53.176;6.002;2023-03-19T05:16:47;22.10;;;14.98;;
54517;SDS011;40423;53.176;6.002;2023-03-19T05:19:15;18.88;;;14.18;;
54517;SDS011;40423;53.176;6.002;2023-03-19T05:21:41;24.45;;;17.02;;
54517;SDS011;40423;53.176;6.002;2023-03-19T05:24:07;20.38;;;15.43;;
54517;SDS011;40423;53.176;6.002;2023-03-19T05:26:32;27.50;;;16.92;;
54517;SDS011;40423;53.176;6.002;2023-03-19T05:28:58;23.13;;;15.85;;
54517;SDS011;40423;53.176;6.002;2023-03-19T05:31:24;20.65;;;15.02;;
54517;SDS011;40423;53.176;6.002;2023-03-19T05:33:50;21.23;;;16.30;;
54517;SDS011;40423;53.176;6.002;2023-03-19T05:36:16;20.65;;;15.15;;
54517;SDS011;40423;53.176;6.002;2023-03-19T05:38:43;23.77;;;17.27;;
54517;SDS011;40423;53.176;6.002;2023-03-19T05:41:08;22.95;;;16.95;;
54517;SDS011;40423;53.176;6.002;2023-03-19T05:43:34;26.05;;;17.75;;
54517;SDS011;40423;53.176;6.002;2023-03-19T05:46:00;27.92;;;18.13;;
54517;SDS011;40423;53.176;6.002;2023-03-19T05:48:26;25.42;;;17.77;;
54517;SDS011;40423;53.176;6.002;2023-03-19T05:50:51;24.52;;;17.52;;
54517;SDS011;40423;53.176;6.002;2023-03-19T05:53:20;26.08;;;18.38;;
54517;SDS011;40423;53.176;6.002;2023-03-19T05:55:50;23.23;;;17.00;;
54517;SDS011;40423;53.176;6.002;2023-03-19T05:58:15;25.63;;;17.92;;
54517;SDS011;40423;53.176;6.002;2023-03-19T06:00:41;24.50;;;16.58;;
54517;SDS011;40423;53.176;6.002;2023-03-19T06:03:07;22.10;;;15.55;;
54517;SDS011;40423;53.176;6.002;2023-03-19T06:05:32;21.20;;;15.30;;
54517;SDS011;40423;53.176;6.002;2023-03-19T06:08:01;23.83;;;17.50;;
54517;SDS011;40423;53.176;6.002;2023-03-19T06:10:28;26.75;;;18.83;;
54517;SDS011;40423;53.176;6.002;2023-03-19T06:12:54;24.80;;;17.08;;
54517;SDS011;40423;53.176;6.002;2023-03-19T06:15:20;24.95;;;16.65;;
54517;SDS011;40423;53.176;6.002;2023-03-19T06:17:45;28.85;;;18.23;;
54517;SDS011;40423;53.176;6.002;2023-03-19T06:20:11;24.88;;;17.70;;
54517;SDS011;40423;53.176;6.002;2023-03-19T06:22:37;31.35;;;19.30;;
54517;SDS011;40423;53.176;6.002;2023-03-19T06:25:03;30.13;;;19.08;;
54517;SDS011;40423;53.176;6.002;2023-03-19T06:27:29;28.80;;;19.83;;
54517;SDS011;40423;53.176;6.002;2023-03-19T06:29:55;29.45;;;21.15;;
54517;SDS011;40423;53.176;6.002;2023-03-19T06:32:20;26.33;;;19.15;;
54517;SDS011;40423;53.176;6.002;2023-03-19T06:34:46;30.55;;;18.75;;
54517;SDS011;40423;53.176;6.002;2023-03-19T06:37:12;25.33;;;17.83;;
54517;SDS011;40423;53.176;6.002;2023-03-19T06:39:37;24.83;;;17.08;;
54517;SDS011;40423;53.176;6.002;2023-03-19T06:42:06;22.75;;;17.38;;
54517;SDS011;40423;53.176;6.002;2023-03-19T06:44:32;25.08;;;16.85;;
54517;SDS011;40423;53.176;6.002;2023-03-19T06:46:58;24.52;;;16.05;;
54517;SDS011;40423;53.176;6.002;2023-03-19T06:49:23;23.25;;;17.15;;
54517;SDS011;40423;53.176;6.002;2023-03-19T06:51:49;23.10;;;16.27;;
54517;SDS011;40423;53.176;6.002;2023-03-19T06:54:15;26.52;;;17.73;;
54517;SDS011;40423;53.176;6.002;2023-03-19T06:56:41;24.20;;;17.27;;
54517;SDS011;40423;53.176;6.002;2023-03-19T06:59:06;22.40;;;15.68;;
54517;SDS011;40423;53.176;6.002;2023-03-19T07:01:36;21.15;;;16.30;;
54517;SDS011;40423;53.176;6.002;2023-03-19T07:04:02;20.38;;;14.70;;
54517;SDS011;40423;53.176;6.002;2023-03-19T07:06:30;23.55;;;16.95;;
54517;SDS011;40423;53.176;6.002;2023-03-19T07:08:57;22.65;;;16.58;;
54517;SDS011;40423;53.176;6.002;2023-03-19T07:11:23;24.65;;;16.63;;
54517;SDS011;40423;53.176;6.002;2023-03-19T07:13:49;23.45;;;16.67;;
54517;SDS011;40423;53.176;6.002;2023-03-19T07:16:14;21.65;;;16.70;;
54517;SDS011;40423;53.176;6.002;2023-03-19T07:18:40;25.33;;;16.75;;
54517;SDS011;40423;53.176;6.002;2023-03-19T07:21:06;27.08;;;18.33;;
54517;SDS011;40423;53.176;6.002;2023-03-19T07:23:31;22.25;;;17.08;;
54517;SDS011;40423;53.176;6.002;2023-03-19T07:25:57;23.95;;;18.33;;
54517;SDS011;40423;53.176;6.002;2023-03-19T07:28:23;24.90;;;17.67;;
54517;SDS011;40423;53.176;6.002;2023-03-19T07:30:52;28.48;;;18.63;;
54517;SDS011;40423;53.176;6.002;2023-03-19T07:33:18;26.83;;;19.42;;
54517;SDS011;40423;53.176;6.002;2023-03-19T07:35:45;35.58;;;22.58;;
54517;SDS011;40423;53.176;6.002;2023-03-19T07:38:10;37.72;;;22.92;;
54517;SDS011;40423;53.176;6.002;2023-03-19T07:40:36;37.45;;;21.77;;
54517;SDS011;40423;53.176;6.002;2023-03-19T07:43:02;38.40;;;22.70;;
54517;SDS011;40423;53.176;6.002;2023-03-19T07:45:28;41.95;;;24.85;;
54517;SDS011;40423;53.176;6.002;2023-03-19T07:47:53;39.60;;;23.55;;
54517;SDS011;40423;53.176;6.002;2023-03-19T07:50:20;42.33;;;25.52;;
54517;SDS011;40423;53.176;6.002;2023-03-19T07:52:46;41.90;;;25.88;;
54517;SDS011;40423;53.176;6.002;2023-03-19T07:55:13;43.92;;;26.58;;
54517;SDS011;40423;53.176;6.002;2023-03-19T07:57:39;45.08;;;28.17;;
54517;SDS011;40423;53.176;6.002;2023-03-19T08:00:05;39.85;;;25.92;;
54517;SDS011;40423;53.176;6.002;2023-03-19T08:02:32;43.95;;;26.65;;
54517;SDS011;40423;53.176;6.002;2023-03-19T08:05:01;39.70;;;23.75;;
54517;SDS011;40423;53.176;6.002;2023-03-19T08:07:29;39.35;;;24.00;;
54517;SDS011;40423;53.176;6.002;2023-03-19T08:09:55;46.25;;;26.50;;
54517;SDS011;40423;53.176;6.002;2023-03-19T08:12:22;40.03;;;23.80;;
54517;SDS011;40423;53.176;6.002;2023-03-19T08:14:49;43.05;;;24.52;;
54517;SDS011;40423;53.176;6.002;2023-03-19T08:17:15;44.95;;;26.00;;
54517;SDS011;40423;53.176;6.002;2023-03-19T08:19:41;45.78;;;27.30;;
54517;SDS011;40423;53.176;6.002;2023-03-19T08:22:07;46.90;;;26.40;;
54517;SDS011;40423;53.176;6.002;2023-03-19T08:24:33;48.05;;;28.17;;
54517;SDS011;40423;53.176;6.002;2023-03-19T08:26:59;44.47;;;28.15;;
54517;SDS011;40423;53.176;6.002;2023-03-19T08:29:25;46.75;;;30.75;;
54517;SDS011;40423;53.176;6.002;2023-03-19T08:31:52;47.97;;;28.88;;
54517;SDS011;40423;53.176;6.002;2023-03-19T08:34:18;48.47;;;28.70;;
54517;SDS011;40423;53.176;6.002;2023-03-19T08:36:45;50.22;;;30.08;;
54517;SDS011;40423;53.176;6.002;2023-03-19T08:39:10;52.90;;;30.70;;
54517;SDS011;40423;53.176;6.002;2023-03-19T08:41:39;56.60;;;32.33;;
54517;SDS011;40423;53.176;6.002;2023-03-19T08:44:04;52.97;;;31.45;;
54517;SDS011;40423;53.176;6.002;2023-03-19T08:46:31;58.55;;;32.58;;
54517;SDS011;40423;53.176;6.002;2023-03-19T08:48:57;58.90;;;33.40;;
54517;SDS011;40423;53.176;6.002;2023-03-19T08:51:23;58.33;;;33.70;;
54517;SDS011;40423;53.176;6.002;2023-03-19T08:53:53;53.55;;;31.02;;
54517;SDS011;40423;53.176;6.002;2023-03-19T08:56:19;55.58;;;33.17;;
54517;SDS011;40423;53.176;6.002;2023-03-19T08:58:45;60.03;;;32.97;;
54517;SDS011;40423;53.176;6.002;2023-03-19T09:01:11;63.05;;;31.27;;
54517;SDS011;40423;53.176;6.002;2023-03-19T09:03:39;61.17;;;33.45;;
54517;SDS011;40423;53.176;6.002;2023-03-19T09:06:08;65.22;;;34.15;;
54517;SDS011;40423;53.176;6.002;2023-03-19T09:08:35;65.05;;;34.30;;
54517;SDS011;40423;53.176;6.002;2023-03-19T09:11:02;62.88;;;31.67;;
54517;SDS011;40423;53.176;6.002;2023-03-19T09:13:35;63.10;;;33.58;;
54517;SDS011;40423;53.176;6.002;2023-03-19T09:16:01;65.53;;;32.72;;
54517;SDS011;40423;53.176;6.002;2023-03-19T09:18:27;63.70;;;32.40;;
54517;SDS011;40423;53.176;6.002;2023-03-19T09:20:53;64.05;;;32.83;;
54517;SDS011;40423;53.176;6.002;2023-03-19T09:23:21;59.13;;;29.20;;
54517;SDS011;40423;53.176;6.002;2023-03-19T09:25:47;49.85;;;25.85;;
54517;SDS011;40423;53.176;6.002;2023-03-19T09:28:14;51.53;;;26.25;;
54517;SDS011;40423;53.176;6.002;2023-03-19T09:30:40;47.80;;;24.10;;
54517;SDS011;40423;53.176;6.002;2023-03-19T09:33:08;47.72;;;24.48;;
54517;SDS011;40423;53.176;6.002;2023-03-19T09:35:34;37.40;;;19.10;;
54517;SDS011;40423;53.176;6.002;2023-03-19T09:38:01;46.25;;;21.20;;
54517;SDS011;40423;53.176;6.002;2023-03-19T09:40:34;39.95;;;20.58;;
54517;SDS011;40423;53.176;6.002;2023-03-19T09:43:23;38.17;;;18.98;;
54517;SDS011;40423;53.176;6.002;2023-03-19T09:45:53;38.60;;;18.50;;
54517;SDS011;40423;53.176;6.002;2023-03-19T09:49:03;44.70;;;21.02;;
54517;SDS011;40423;53.176;6.002;2023-03-19T09:51:11;37.45;;;19.83;;
54517;SDS011;40423;53.176;6.002;2023-03-19T09:56:13;50.10;;;21.67;;
54517;SDS011;40423;53.176;6.002;2023-03-19T09:58:40;41.70;;;20.75;;
54517;SDS011;40423;53.176;6.002;2023-03-19T10:01:10;39.13;;;20.30;;
54517;SDS011;40423;53.176;6.002;2023-03-19T10:06:43;46.78;;;22.40;;
54517;SDS011;40423;53.176;6.002;2023-03-19T10:09:21;45.65;;;22.73;;
54517;SDS011;40423;53.176;6.002;2023-03-19T10:14:38;43.58;;;21.15;;
54517;SDS011;40423;53.176;6.002;2023-03-19T10:17:31;50.60;;;23.08;;
54517;SDS011;40423;53.176;6.002;2023-03-19T10:23:25;44.03;;;21.10;;
54517;SDS011;40423;53.176;6.002;2023-03-19T10:25:48;44.28;;;21.17;;
54517;SDS011;40423;53.176;6.002;2023-03-19T10:28:18;37.13;;;19.33;;
54517;SDS011;40423;53.176;6.002;2023-03-19T10:30:56;43.13;;;20.10;;
54517;SDS011;40423;53.176;6.002;2023-03-19T10:36:25;43.45;;;20.58;;
54517;SDS011;40423;53.176;6.002;2023-03-19T10:38:54;53.38;;;24.25;;
54517;SDS011;40423;53.176;6.002;2023-03-19T10:44:33;51.42;;;23.83;;
54517;SDS011;40423;53.176;6.002;2023-03-19T10:47:11;54.53;;;25.15;;
54517;SDS011;40423;53.176;6.002;2023-03-19T10:49:39;52.28;;;23.17;;
54517;SDS011;40423;53.176;6.002;2023-03-19T10:52:08;50.25;;;22.55;;
54517;SDS011;40423;53.176;6.002;2023-03-19T10:54:55;53.70;;;23.90;;
54517;SDS011;40423;53.176;6.002;2023-03-19T10:57:42;54.42;;;24.10;;
54517;SDS011;40423;53.176;6.002;2023-03-19T11:00:15;41.13;;;20.85;;
54517;SDS011;40423;53.176;6.002;2023-03-19T11:02:47;45.20;;;22.00;;
54517;SDS011;40423;53.176;6.002;2023-03-19T11:07:50;39.90;;;19.80;;
54517;SDS011;40423;53.176;6.002;2023-03-19T11:10:23;36.97;;;18.30;;
54517;SDS011;40423;53.176;6.002;2023-03-19T11:12:51;34.97;;;18.77;;
54517;SDS011;40423;53.176;6.002;2023-03-19T11:15:23;38.83;;;20.30;;
54517;SDS011;40423;53.176;6.002;2023-03-19T11:18:05;38.53;;;20.25;;
54517;SDS011;40423;53.176;6.002;2023-03-19T11:20:42;31.73;;;17.98;;
54517;SDS011;40423;53.176;6.002;2023-03-19T11:23:18;30.77;;;18.88;;
54517;SDS011;40423;53.176;6.002;2023-03-19T11:25:51;26.67;;;17.15;;
54517;SDS011;40423;53.176;6.002;2023-03-19T11:28:18;26.10;;;16.63;;
54517;SDS011;40423;53.176;6.002;2023-03-19T11:36:20;32.10;;;16.85;;
54517;SDS011;40423;53.176;6.002;2023-03-19T11:45:03;40.63;;;20.25;;
54517;SDS011;40423;53.176;6.002;2023-03-19T11:48:12;41.38;;;18.20;;
54517;SDS011;40423;53.176;6.002;2023-03-19T11:51:09;43.60;;;19.02;;
54517;SDS011;40423;53.176;6.002;2023-03-19T11:56:47;33.08;;;16.27;;
54517;SDS011;40423;53.176;6.002;2023-03-19T12:00:25;36.22;;;16.42;;
54517;SDS011;40423;53.176;6.002;2023-03-19T12:05:17;33.20;;;17.00;;
54517;SDS011;40423;53.176;6.002;2023-03-19T12:07:54;40.25;;;18.73;;
54517;SDS011;40423;53.176;6.002;2023-03-19T12:13:21;35.38;;;17.30;;
54517;SDS011;40423;53.176;6.002;2023-03-19T12:27:16;34.88;;;16.45;;
54517;SDS011;40423;53.176;6.002;2023-03-19T12:30:07;31.52;;;17.75;;
54517;SDS011;40423;53.176;6.002;2023-03-19T12:33:10;33.42;;;16.73;;
54517;SDS011;40423;53.176;6.002;2023-03-19T12:35:58;27.85;;;14.95;;
54517;SDS011;40423;53.176;6.002;2023-03-19T12:38:33;33.75;;;18.23;;
54517;SDS011;40423;53.176;6.002;2023-03-19T12:41:10;30.27;;;18.20;;
54517;SDS011;40423;53.176;6.002;2023-03-19T12:46:18;31.60;;;17.75;;
54517;SDS011;40423;53.176;6.002;2023-03-19T12:49:06;34.83;;;18.92;;
54517;SDS011;40423;53.176;6.002;2023-03-19T12:51:39;38.20;;;19.95;;
54517;SDS011;40423;53.176;6.002;2023-03-19T12:57:09;39.35;;;20.65;;
54517;SDS011;40423;53.176;6.002;2023-03-19T13:02:25;34.58;;;18.20;;
54517;SDS011;40423;53.176;6.002;2023-03-19T13:05:03;41.63;;;20.27;;
54517;SDS011;40423;53.176;6.002;2023-03-19T13:07:37;39.13;;;21.27;;
54517;SDS011;40423;53.176;6.002;2023-03-19T13:10:19;38.97;;;21.33;;
54517;SDS011;40423;53.176;6.002;2023-03-19T13:12:46;39.90;;;21.25;;
54517;SDS011;40423;53.176;6.002;2023-03-19T13:23:02;52.05;;;25.40;;
54517;SDS011;40423;53.176;6.002;2023-03-19T13:25:35;51.03;;;23.92;;
54517;SDS011;40423;53.176;6.002;2023-03-19T13:28:05;50.70;;;24.52;;
54517;SDS011;40423;53.176;6.002;2023-03-19T13:30:36;44.20;;;22.48;;
54517;SDS011;40423;53.176;6.002;2023-03-19T13:33:05;53.42;;;25.60;;
54517;SDS011;40423;53.176;6.002;2023-03-19T13:40:58;47.22;;;25.40;;
54517;SDS011;40423;53.176;6.002;2023-03-19T13:46:39;49.28;;;25.52;;
54517;SDS011;40423;53.176;6.002;2023-03-19T13:53:40;48.17;;;25.88;;
54517;SDS011;40423;53.176;6.002;2023-03-19T13:56:30;48.35;;;25.55;;
54517;SDS011;40423;53.176;6.002;2023-03-19T13:59:31;40.58;;;22.60;;
54517;SDS011;40423;53.176;6.002;2023-03-19T14:01:51;43.45;;;23.08;;
54517;SDS011;40423;53.176;6.002;2023-03-19T14:14:41;41.05;;;22.20;;
54517;SDS011;40423;53.176;6.002;2023-03-19T14:17:30;41.33;;;23.27;;
54517;SDS011;40423;53.176;6.002;2023-03-19T14:23:01;38.17;;;20.85;;
54517;SDS011;40423;53.176;6.002;2023-03-19T14:28:20;46.90;;;23.83;;
54517;SDS011;40423;53.176;6.002;2023-03-19T14:30:52;40.95;;;22.92;;
54517;SDS011;40423;53.176;6.002;2023-03-19T14:36:06;40.17;;;22.08;;
54517;SDS011;40423;53.176;6.002;2023-03-19T14:38:37;43.22;;;23.02;;
54517;SDS011;40423;53.176;6.002;2023-03-19T14:41:11;43.85;;;23.98;;
54517;SDS011;40423;53.176;6.002;2023-03-19T14:47:28;39.03;;;19.77;;
54517;SDS011;40423;53.176;6.002;2023-03-19T14:56:25;44.70;;;23.27;;
54517;SDS011;40423;53.176;6.002;2023-03-19T14:58:55;41.15;;;22.80;;
54517;SDS011;40423;53.176;6.002;2023-03-19T15:01:22;39.80;;;22.70;;
54517;SDS011;40423;53.176;6.002;2023-03-19T15:04:10;37.25;;;22.02;;
54517;SDS011;40423;53.176;6.002;2023-03-19T15:06:39;38.83;;;23.08;;
54517;SDS011;40423;53.176;6.002;2023-03-19T15:09:43;34.00;;;20.48;;
54517;SDS011;40423;53.176;6.002;2023-03-19T15:12:04;34.38;;;19.90;;
54517;SDS011;40423;53.176;6.002;2023-03-19T15:15:00;35.53;;;18.75;;
54517;SDS011;40423;53.176;6.002;2023-03-19T15:17:34;36.60;;;19.38;;
54517;SDS011;40423;53.176;6.002;2023-03-19T15:20:12;37.65;;;20.20;;
54517;SDS011;40423;53.176;6.002;2023-03-19T15:22:40;55.40;;;27.25;;
54517;SDS011;40423;53.176;6.002;2023-03-19T15:25:10;69.28;;;29.80;;
54517;SDS011;40423;53.176;6.002;2023-03-19T15:27:38;70.07;;;28.33;;
54517;SDS011;40423;53.176;6.002;2023-03-19T15:30:18;59.83;;;25.88;;
54517;SDS011;40423;53.176;6.002;2023-03-19T15:32:46;63.72;;;29.30;;
54517;SDS011;40423;53.176;6.002;2023-03-19T15:35:12;64.22;;;25.85;;
54517;SDS011;40423;53.176;6.002;2023-03-19T15:37:39;62.03;;;25.92;;
54517;SDS011;40423;53.176;6.002;2023-03-19T15:40:09;61.72;;;25.52;;
54517;SDS011;40423;53.176;6.002;2023-03-19T15:42:37;72.65;;;28.25;;
54517;SDS011;40423;53.176;6.002;2023-03-19T15:45:10;56.70;;;24.48;;
54517;SDS011;40423;53.176;6.002;2023-03-19T15:47:38;61.50;;;25.27;;
54517;SDS011;40423;53.176;6.002;2023-03-19T15:50:13;56.33;;;25.63;;
54517;SDS011;40423;53.176;6.002;2023-03-19T15:52:44;56.42;;;23.55;;
54517;SDS011;40423;53.176;6.002;2023-03-19T15:55:13;54.05;;;23.27;;
54517;SDS011;40423;53.176;6.002;2023-03-19T15:57:41;53.30;;;23.63;;
54517;SDS011;40423;53.176;6.002;2023-03-19T16:00:08;46.22;;;22.08;;
54517;SDS011;40423;53.176;6.002;2023-03-19T16:02:37;51.35;;;22.67;;
54517;SDS011;40423;53.176;6.002;2023-03-19T16:05:05;45.28;;;21.30;;
54517;SDS011;40423;53.176;6.002;2023-03-19T16:13:01;43.88;;;22.98;;
54517;SDS011;40423;53.176;6.002;2023-03-19T16:15:42;51.80;;;22.80;;
54517;SDS011;40423;53.176;6.002;2023-03-19T16:20:40;47.78;;;20.75;;
54517;SDS011;40423;53.176;6.002;2023-03-19T16:23:08;40.63;;;18.38;;
54517;SDS011;40423;53.176;6.002;2023-03-19T16:25:45;32.13;;;16.58;;
54517;SDS011;40423;53.176;6.002;2023-03-19T16:28:15;26.92;;;13.23;;
54517;SDS011;40423;53.176;6.002;2023-03-19T16:30:46;25.10;;;13.30;;
54517;SDS011;40423;53.176;6.002;2023-03-19T16:33:13;22.15;;;12.80;;
54517;SDS011;40423;53.176;6.002;2023-03-19T16:35:39;24.60;;;12.75;;
54517;SDS011;40423;53.176;6.002;2023-03-19T16:40:48;23.55;;;12.88;;
54517;SDS011;40423;53.176;6.002;2023-03-19T16:43:24;24.95;;;12.25;;
54517;SDS011;40423;53.176;6.002;2023-03-19T16:46:05;27.67;;;12.50;;
54517;SDS011;40423;53.176;6.002;2023-03-19T16:48:36;23.65;;;11.68;;
54517;SDS011;40423;53.176;6.002;2023-03-19T16:51:11;28.70;;;12.60;;